Weather at Taylor Ranch Airport

Public forecast

Using degrees Fahrenheit for public forecast. Weather courtesy of forecast.io.

Closest aviation weather report (METAR) to Taylor Ranch Airport

Closest report is Sonora Municipal Airport, 28.5 nm (52.7 km) NNE. Retrieved 2022/06/24 22:35 UTC (3 minutes ago):

KSOA 242235Z AUTO 15009G14KT 130V210 10SM 37/09 A2993 RMK AO2

Closest aviation forecast (TAF) to Taylor Ranch Airport

Closest forecast is Sonora Municipal Airport, 28.5 nm (52.7 km) NNE. Retrieved 2022/06/24 18:45 UTC (4 hours ago):

TAF KSOA 241742Z 2418/2518 17010G16KT P6SM SKC FM242300 17006KT P6SM SKC